Aviation Digital Data Service (ADDS)

Output produced by METARs form (0330 UTC 22 November 2017)
found at http://aviationweather.gov/adds/metars/
 
KSHV 220256Z 36004KT 10SM OVC031 14/12 A3011 RMK AO2 SLP195 60000 T01390117 53030